Time;durP1;ratioP1;P1;durP2;ratioP2;P2;SDS_P1;SDS_P2;PMS_P1;PMS_P2;Temp;Humidity;BMP_temperature;BMP_pressure;BME280_temperature;BME280_humidity;BME280_pressure;Samples;Min_cycle;Max_cycle;Signal;HPM_P1;HPM_P2
2023/01/19 00:00:57;;;;;;;28.13;14.87;;;;;;;11.21;57.27;99831.41;5112164;28;20832;-75
2023/01/19 00:03:22;;;;;;;23.20;12.02;;;;;;;11.03;57.41;99821.31;5111997;28;20463;-75
2023/01/19 00:05:48;;;;;;;27.30;12.40;;;;;;;11.00;57.80;99844.75;5111996;28;20399;-75
2023/01/19 00:08:14;;;;;;;14.97;7.80;;;;;;;11.06;57.48;99834.19;5112009;28;20376;-75
2023/01/19 00:10:46;;;;;;;19.45;9.60;;;;;;;11.20;57.20;99834.25;5111696;27;20807;-75
2023/01/19 00:13:12;;;;;;;14.25;7.40;;;;;;;11.02;57.66;99842.72;5111723;28;20426;-75
2023/01/19 00:15:38;;;;;;;13.45;6.78;;;;;;;11.04;58.05;99836.22;5111679;28;20748;-75
2023/01/19 00:18:03;;;;;;;16.75;7.90;;;;;;;11.09;57.50;99838.28;5112019;28;21064;-75
2023/01/19 00:20:31;;;;;;;19.45;9.38;;;;;;;11.08;57.37;99836.66;5110533;28;20384;-75
2023/01/19 00:22:57;;;;;;;16.55;6.63;;;;;;;11.13;57.49;99831.59;5110898;28;20524;-74
2023/01/19 00:25:23;;;;;;;13.85;6.95;;;;;;;11.21;57.32;99830.59;5112298;28;20407;-73
2023/01/19 00:27:48;;;;;;;16.92;7.72;;;;;;;11.12;57.18;99835.25;5111457;28;20403;-74
2023/01/19 00:30:15;;;;;;;26.13;12.10;;;;;;;11.20;57.53;99844.88;5111239;28;20416;-74
2023/01/19 00:32:40;;;;;;;18.90;9.13;;;;;;;11.31;56.90;99843.50;5111876;28;20773;-74
2023/01/19 00:35:06;;;;;;;19.33;10.20;;;;;;;11.06;57.34;99850.09;5111912;28;20851;-74
2023/01/19 00:37:33;;;;;;;15.05;8.02;;;;;;;10.86;58.15;99865.88;5110428;28;20403;-75
2023/01/19 00:39:59;;;;;;;15.27;6.07;;;;;;;10.89;58.49;99856.69;5111757;28;20856;-75
2023/01/19 00:42:39;;;;;;;9.13;4.50;;;;;;;10.79;58.08;99856.25;5110707;28;20479;-75
2023/01/19 00:45:10;;;;;;;13.57;7.10;;;;;;;10.65;59.03;99863.25;5111098;28;20470;-75
2023/01/19 00:47:35;;;;;;;13.25;6.25;;;;;;;10.50;59.19;99874.75;5110843;28;20494;-75
2023/01/19 00:50:01;;;;;;;13.20;7.10;;;;;;;10.48;59.15;99878.63;5111273;28;20383;-75
2023/01/19 00:52:27;;;;;;;13.27;6.33;;;;;;;10.42;59.43;99877.53;5111578;28;20380;-75
2023/01/19 00:54:52;;;;;;;15.40;6.60;;;;;;;10.27;59.87;99863.50;5111080;28;20482;-75
2023/01/19 00:57:18;;;;;;;13.23;7.37;;;;;;;10.28;59.29;99883.66;5111442;28;20383;-74
2023/01/19 00:59:44;;;;;;;15.40;4.33;;;;;;;10.29;59.31;99869.44;5111411;28;20752;-75
2023/01/19 01:02:10;;;;;;;11.23;5.15;;;;;;;10.27;59.43;99874.09;5111109;28;20392;-75
2023/01/19 01:04:36;;;;;;;14.73;5.27;;;;;;;10.14;59.74;99874.78;5111471;28;20457;-75
2023/01/19 01:07:02;;;;;;;10.38;5.28;;;;;;;10.07;59.87;99895.06;5111034;28;20439;-75
2023/01/19 01:09:27;;;;;;;16.80;5.60;;;;;;;10.30;59.41;99884.31;5111661;28;20420;-75
2023/01/19 01:11:53;;;;;;;15.73;6.87;;;;;;;10.22;59.27;99879.13;5111349;28;20375;-75
2023/01/19 01:14:18;;;;;;;14.85;4.63;;;;;;;9.99;60.24;99887.22;5111315;28;20387;-74
2023/01/19 01:16:44;;;;;;;16.20;5.43;;;;;;;9.97;60.19;99879.47;5110865;28;20404;-74
2023/01/19 01:19:09;;;;;;;15.97;6.67;;;;;;;9.89;61.05;99877.75;5111219;28;20387;-74
2023/01/19 01:21:36;;;;;;;13.70;5.50;;;;;;;9.94;60.67;99874.56;5110767;28;20898;-75
2023/01/19 01:24:02;;;;;;;16.25;5.95;;;;;;;10.03;60.22;99880.53;5110152;28;20395;-75
2023/01/19 01:26:28;;;;;;;14.25;6.55;;;;;;;10.03;59.76;99864.66;5110381;28;20414;-75
2023/01/19 01:28:53;;;;;;;16.60;8.27;;;;;;;10.15;59.83;99879.06;5110499;28;20412;-75
2023/01/19 01:31:19;;;;;;;16.03;5.83;;;;;;;10.16;59.41;99858.72;5110850;28;20868;-75
2023/01/19 01:33:44;;;;;;;16.67;6.00;;;;;;;9.90;60.05;99857.41;5109588;28;20416;-75
2023/01/19 01:36:10;;;;;;;12.75;6.10;;;;;;;9.89;60.59;99877.75;5109019;28;20372;-75
2023/01/19 01:38:38;;;;;;;15.70;7.03;;;;;;;9.87;60.42;99876.31;5110579;28;20391;-75
2023/01/19 01:41:04;;;;;;;13.35;6.88;;;;;;;9.83;60.65;99867.09;5099435;28;20380;-75
2023/01/19 01:43:44;;;;;;;16.77;5.47;;;;;;;9.60;61.38;99873.34;5110597;28;20383;-75
2023/01/19 01:46:09;;;;;;;10.15;5.32;;;;;;;9.61;60.74;99858.28;5108382;28;20431;-75
2023/01/19 01:48:37;;;;;;;13.67;5.90;;;;;;;9.61;60.96;99843.22;5110272;28;20832;-75
2023/01/19 01:51:24;;;;;;;12.30;5.50;;;;;;;9.69;60.98;99858.19;5111086;28;20386;-75
2023/01/19 01:54:07;;;;;;;17.90;6.85;;;;;;;9.91;60.20;99856.41;5110579;28;20913;-75
2023/01/19 01:56:36;;;;;;;11.93;6.78;;;;;;;9.93;59.61;99851.75;5110917;28;20376;-75
2023/01/19 01:59:06;;;;;;;14.82;5.35;;;;;;;9.71;60.35;99854.34;5110535;28;20774;-75
2023/01/19 02:04:17;;;;;;;20.05;9.85;;;;;;;9.74;60.59;99846.03;5110101;28;20855;-75
2023/01/19 02:15:00;;;;;;;13.38;5.30;;;;;;;9.67;60.15;99837.19;5111196;28;20708;-74
2023/01/19 02:17:26;;;;;;;14.88;5.50;;;;;;;9.68;60.33;99845.94;5109765;28;20371;-75
2023/01/19 02:19:51;;;;;;;16.08;6.53;;;;;;;9.88;59.67;99851.47;5110427;28;20721;-75
2023/01/19 02:22:48;;;;;;;13.60;6.55;;;;;;;9.95;59.34;99841.78;5110459;28;20383;-75
2023/01/19 02:25:15;;;;;;;12.20;5.80;;;;;;;9.71;59.77;99824.41;5084108;28;20893;-75
2023/01/19 02:27:41;;;;;;;14.55;6.35;;;;;;;9.77;59.63;99837.72;5110318;28;20407;-74
2023/01/19 02:30:08;;;;;;;18.48;8.00;;;;;;;9.86;59.10;99819.88;5110321;28;20719;-74
2023/01/19 02:32:34;;;;;;;29.10;14.45;;;;;;;9.77;59.48;99815.72;5109531;28;21007;-75
2023/01/19 02:35:00;;;;;;;31.02;15.75;;;;;;;9.85;59.33;99812.13;5110340;28;20380;-75
2023/01/19 02:37:28;;;;;;;25.90;12.20;;;;;;;9.91;58.96;99817.50;5109228;28;20720;-75
2023/01/19 02:39:57;;;;;;;47.72;28.50;;;;;;;9.79;58.96;99826.94;5110198;28;20372;-74
2023/01/19 02:42:28;;;;;;;31.35;18.33;;;;;;;9.81;59.14;99824.09;5109649;28;20380;-74
2023/01/19 02:44:55;;;;;;;24.52;14.10;;;;;;;9.66;59.21;99829.44;5110496;28;20384;-74
2023/01/19 02:47:21;;;;;;;14.45;6.95;;;;;;;9.55;59.89;99815.69;5112926;28;20399;-75
2023/01/19 02:49:56;;;;;;;19.13;7.37;;;;;;;9.63;59.59;99817.38;5113779;28;20389;-74
2023/01/19 02:52:22;;;;;;;17.87;12.00;;;;;;;9.69;59.59;99816.66;5113788;28;20759;-74
2023/01/19 02:55:07;;;;;;;19.45;9.65;;;;;;;9.68;59.12;99820.31;5114014;28;20832;-75
2023/01/19 02:58:07;;;;;;;13.52;6.55;;;;;;;9.45;59.86;99833.66;5113757;28;20380;-74
2023/01/19 03:00:53;;;;;;;13.52;6.57;;;;;;;9.30;60.07;99846.09;5113904;28;20745;-74
2023/01/19 03:03:29;;;;;;;13.77;5.65;;;;;;;8.78;61.41;99839.84;5113335;28;20395;-74
2023/01/19 03:06:35;;;;;;;12.45;4.65;;;;;;;8.37;62.13;99842.78;5113203;28;20431;-74
2023/01/19 03:09:32;;;;;;;14.10;5.20;;;;;;;8.44;61.96;99856.97;5030722;28;20783;-74
2023/01/19 03:12:12;;;;;;;12.68;4.60;;;;;;;8.42;61.11;99849.22;5072910;28;20395;-74
2023/01/19 03:14:43;;;;;;;12.85;4.88;;;;;;;8.45;61.32;99837.50;5105226;28;20470;-75
2023/01/19 03:17:11;;;;;;;12.38;6.85;;;;;;;8.40;61.08;99845.91;5104523;28;20372;-74
2023/01/19 03:19:40;;;;;;;12.27;4.55;;;;;;;8.15;61.86;99842.63;5112711;28;20464;-74
2023/01/19 03:22:12;;;;;;;10.20;4.40;;;;;;;8.31;61.59;99846.97;5112268;28;20384;-74
2023/01/19 03:24:40;;;;;;;13.35;6.20;;;;;;;8.36;60.68;99849.91;5097916;28;20375;-74
2023/01/19 03:27:22;;;;;;;11.25;4.78;;;;;;;8.46;60.62;99849.69;5113136;28;20442;-74
2023/01/19 03:29:52;;;;;;;13.13;5.50;;;;;;;8.60;60.05;99840.16;5112584;28;20524;-74
2023/01/19 03:32:21;;;;;;;15.10;5.85;;;;;;;8.66;60.36;99836.00;5113542;28;20384;-74
2023/01/19 03:34:48;;;;;;;17.17;6.22;;;;;;;8.58;61.00;99832.41;5113057;28;20387;-75
2023/01/19 03:37:16;;;;;;;17.90;6.32;;;;;;;8.46;60.96;99830.38;5113191;28;20363;-75
2023/01/19 03:39:42;;;;;;;14.77;6.18;;;;;;;8.45;61.19;99828.75;5111497;28;20380;-75
2023/01/19 03:42:12;;;;;;;16.48;6.40;;;;;;;8.49;60.69;99837.97;5112053;28;20386;-75
2023/01/19 03:44:40;;;;;;;18.73;9.70;;;;;;;8.45;60.81;99828.75;5107065;28;20852;-75
2023/01/19 03:47:08;;;;;;;12.98;5.28;;;;;;;8.45;61.22;99832.22;5111750;27;20403;-74
2023/01/19 03:49:36;;;;;;;12.38;5.03;;;;;;;8.34;61.44;99811.50;5110560;28;20375;-75
2023/01/19 03:52:02;;;;;;;10.75;5.30;;;;;;;8.47;61.31;99824.13;5111778;28;20736;-75
2023/01/19 03:54:28;;;;;;;16.45;7.15;;;;;;;8.47;61.30;99819.66;5112234;28;20505;-75
2023/01/19 03:56:53;;;;;;;14.00;6.93;;;;;;;8.44;60.76;99817.34;5112481;28;20384;-75
2023/01/19 03:59:20;;;;;;;10.90;5.73;;;;;;;8.40;61.28;99826.59;5111560;27;20390;-74
2023/01/19 04:01:46;;;;;;;13.80;8.20;;;;;;;8.34;61.67;99830.78;5111423;28;20447;-75
2023/01/19 04:04:14;;;;;;;14.60;6.13;;;;;;;8.27;61.35;99831.69;5111896;28;20470;-75
2023/01/19 04:06:39;;;;;;;15.95;5.25;;;;;;;8.14;62.21;99832.22;5109057;28;20399;-75
2023/01/19 04:09:04;;;;;;;13.40;5.80;;;;;;;7.93;62.28;99825.78;5112094;27;20383;-74
2023/01/19 04:11:30;;;;;;;10.45;4.50;;;;;;;7.87;62.73;99838.84;5111348;28;20391;-75
2023/01/19 04:13:56;;;;;;;12.43;5.60;;;;;;;7.83;62.84;99828.66;5112464;28;20372;-75
2023/01/19 04:16:22;;;;;;;11.60;4.90;;;;;;;7.92;62.45;99841.78;5111654;28;20883;-75
2023/01/19 04:18:48;;;;;;;8.83;5.10;;;;;;;7.80;62.80;99831.63;5110839;28;20431;-75
2023/01/19 04:21:13;;;;;;;10.57;5.33;;;;;;;8.07;62.29;99831.28;5111917;28;20466;-75
2023/01/19 04:23:39;;;;;;;11.33;5.37;;;;;;;8.34;61.58;99841.34;5111841;28;20414;-75
2023/01/19 04:26:06;;;;;;;14.70;7.33;;;;;;;8.46;60.79;99839.13;5111511;28;20403;-75
2023/01/19 04:28:33;;;;;;;17.07;9.30;;;;;;;8.61;60.18;99849.75;5111317;28;20555;-75
2023/01/19 04:30:59;;;;;;;14.65;6.45;;;;;;;8.58;60.46;99850.91;5109146;28;20392;-75
2023/01/19 04:33:26;;;;;;;11.38;5.50;;;;;;;8.60;60.41;99848.91;5111851;28;20383;-75
2023/01/19 04:35:51;;;;;;;22.42;11.93;;;;;;;8.44;60.15;99849.03;5112323;28;20386;-74
2023/01/19 04:38:18;;;;;;;16.40;7.03;;;;;;;8.39;60.21;99854.00;5110639;28;20379;-75
2023/01/19 04:40:44;;;;;;;22.60;11.60;;;;;;;8.17;60.97;99847.72;5111434;28;20470;-74
2023/01/19 04:43:10;;;;;;;18.90;9.27;;;;;;;8.14;61.27;99841.00;5111245;28;20470;-75
2023/01/19 04:45:35;;;;;;;19.20;6.67;;;;;;;8.24;61.07;99825.72;5111570;28;21000;-74
2023/01/19 04:48:03;;;;;;;13.57;7.40;;;;;;;8.27;60.85;99824.56;5110263;28;20994;-75
2023/01/19 04:50:28;;;;;;;20.52;10.70;;;;;;;8.40;60.41;99839.81;5109864;28;20387;-75
2023/01/19 04:52:54;;;;;;;19.58;10.55;;;;;;;8.37;60.12;99826.94;5110409;28;20378;-74
2023/01/19 04:55:19;;;;;;;16.23;8.60;;;;;;;8.41;60.34;99829.06;5110940;28;20415;-75
2023/01/19 04:57:45;;;;;;;17.67;8.93;;;;;;;8.49;60.04;99828.22;5110795;28;20405;-75
2023/01/19 05:00:11;;;;;;;24.95;10.73;;;;;;;8.50;59.88;99826.38;5110291;28;20471;-76
2023/01/19 05:02:36;;;;;;;15.85;7.63;;;;;;;8.48;60.16;99831.03;5110301;28;20387;-74
2023/01/19 05:05:02;;;;;;;16.57;6.67;;;;;;;8.45;60.18;99820.84;5110580;28;20708;-75
2023/01/19 05:07:28;;;;;;;18.17;10.32;;;;;;;8.37;60.49;99834.88;5111436;28;20514;-75
2023/01/19 05:09:54;;;;;;;19.40;9.50;;;;;;;8.47;60.37;99819.66;5108874;28;20395;-74
2023/01/19 05:12:19;;;;;;;16.63;9.33;;;;;;;8.57;60.06;99814.09;5109630;28;20375;-74
2023/01/19 05:14:45;;;;;;;19.80;9.97;;;;;;;8.58;59.90;99836.88;5111380;28;20387;-75
2023/01/19 05:17:11;;;;;;;42.13;28.40;;;;;;;8.65;59.76;99839.66;5111035;28;20372;-75
2023/01/19 05:19:36;;;;;;;19.80;11.85;;;;;;;8.57;59.80;99840.53;5110396;28;20391;-74
2023/01/19 05:22:03;;;;;;;15.15;8.20;;;;;;;8.47;60.47;99840.78;5111128;28;20407;-75
2023/01/19 05:24:29;;;;;;;23.52;11.48;;;;;;;8.45;60.45;99841.97;5109614;28;20395;-75
2023/01/19 05:26:55;;;;;;;20.17;11.97;;;;;;;8.46;60.74;99852.31;5110228;28;20492;-75
2023/01/19 05:29:21;;;;;;;25.93;12.63;;;;;;;8.37;60.83;99845.44;5098520;28;20536;-76
2023/01/19 05:31:46;;;;;;;23.57;13.13;;;;;;;8.41;61.44;99863.41;5094250;28;20396;-76
2023/01/19 05:34:13;;;;;;;16.67;8.70;;;;;;;8.31;60.84;99870.72;5099127;28;20389;-75
2023/01/19 05:36:40;;;;;;;13.80;7.82;;;;;;;8.07;61.86;99857.69;5098016;28;20413;-75
2023/01/19 05:39:05;;;;;;;10.27;6.20;;;;;;;7.94;62.48;99869.66;5095707;28;20446;-75
2023/01/19 05:41:31;;;;;;;18.42;9.40;;;;;;;8.08;62.38;99869.91;5100122;28;20383;-75
2023/01/19 05:43:56;;;;;;;13.40;6.50;;;;;;;8.07;62.16;99862.97;5099721;28;20396;-75
2023/01/19 05:46:23;;;;;;;17.00;7.13;;;;;;;8.01;62.39;99859.22;5104254;28;20399;-74
2023/01/19 05:48:48;;;;;;;13.68;7.15;;;;;;;8.07;62.33;99868.25;5100961;28;20383;-75
2023/01/19 05:51:14;;;;;;;14.27;7.95;;;;;;;8.14;61.86;99850.72;5090903;28;20389;-75
2023/01/19 05:53:40;;;;;;;11.95;6.38;;;;;;;8.12;62.25;99853.56;5091703;28;20841;-75
2023/01/19 05:56:08;;;;;;;22.07;9.70;;;;;;;8.10;62.37;99865.28;5094556;28;20716;-75
2023/01/19 05:58:34;;;;;;;18.53;9.03;;;;;;;8.02;62.54;99855.59;5096027;28;20478;-74
2023/01/19 06:01:07;;;;;;;14.20;8.50;;;;;;;8.00;62.60;99858.41;5094267;28;20396;-75
2023/01/19 06:03:34;;;;;;;18.33;8.27;;;;;;;7.89;63.01;99868.53;5089083;28;20830;-75
2023/01/19 06:05:59;;;;;;;16.80;8.57;;;;;;;7.92;62.99;99849.69;5091630;28;20411;-75
2023/01/19 06:08:25;;;;;;;17.60;10.52;;;;;;;7.95;63.26;99846.72;5089070;28;20377;-75
2023/01/19 06:10:51;;;;;;;20.05;9.23;;;;;;;7.98;62.69;99851.66;5089600;28;20765;-74
2023/01/19 06:13:16;;;;;;;25.35;12.23;;;;;;;8.04;63.20;99854.41;5092692;28;20733;-75
2023/01/19 06:15:43;;;;;;;21.20;9.85;;;;;;;8.09;62.84;99853.91;5108985;28;20468;-75
2023/01/19 06:18:09;;;;;;;18.40;9.80;;;;;;;8.10;63.36;99846.78;5110298;28;20376;-75
2023/01/19 06:20:35;;;;;;;17.48;9.73;;;;;;;8.09;63.53;99847.81;5110371;28;20784;-75
2023/01/19 06:23:02;;;;;;;18.33;8.88;;;;;;;8.10;63.11;99866.06;5114337;28;20930;-74
2023/01/19 06:25:27;;;;;;;17.60;8.90;;;;;;;8.19;63.04;99862.41;5107090;28;20397;-75
2023/01/19 06:27:53;;;;;;;13.83;7.63;;;;;;;8.07;63.85;99860.31;5104229;28;20403;-75
2023/01/19 06:30:18;;;;;;;14.23;7.17;;;;;;;8.07;63.76;99870.88;5114748;28;20411;-75
2023/01/19 06:32:44;;;;;;;15.15;7.15;;;;;;;8.17;63.87;99877.59;5113958;28;20379;-74
2023/01/19 06:35:09;;;;;;;12.52;6.20;;;;;;;8.03;64.27;99888.88;5115046;28;20800;-75
2023/01/19 06:37:35;;;;;;;18.55;8.50;;;;;;;8.07;63.87;99873.53;5114731;28;20824;-74
2023/01/19 06:40:01;;;;;;;17.27;8.53;;;;;;;8.15;64.10;99902.53;5114392;28;20379;-74
2023/01/19 06:42:26;;;;;;;18.00;8.70;;;;;;;8.13;64.49;99892.13;5114678;28;20368;-76
2023/01/19 06:44:52;;;;;;;15.77;7.73;;;;;;;8.13;64.84;99873.66;5113983;28;20375;-75
2023/01/19 06:47:17;;;;;;;15.95;9.00;;;;;;;8.37;63.87;99879.78;5114599;28;20410;-76
2023/01/19 06:49:43;;;;;;;15.80;7.63;;;;;;;8.44;63.79;99880.75;5113929;28;20371;-75
2023/01/19 06:52:14;;;;;;;14.57;9.90;;;;;;;8.63;63.34;99881.28;5113210;27;20390;-76
2023/01/19 06:54:42;;;;;;;14.23;8.57;;;;;;;8.72;63.06;99881.03;5113417;28;20440;-75
2023/01/19 06:57:07;;;;;;;17.23;9.60;;;;;;;8.83;62.47;99879.78;5113967;28;20545;-75
2023/01/19 06:59:33;;;;;;;16.00;8.47;;;;;;;8.76;63.09;99879.66;5112892;28;20471;-74
2023/01/19 07:01:58;;;;;;;19.00;9.10;;;;;;;8.93;62.57;99904.13;5112537;28;20406;-74
2023/01/19 07:04:24;;;;;;;20.37;10.07;;;;;;;9.02;62.38;99914.63;5113919;28;20372;-74
2023/01/19 07:06:50;;;;;;;17.40;10.23;;;;;;;9.16;61.90;99911.19;5114068;28;20403;-75
2023/01/19 07:09:15;;;;;;;16.87;10.07;;;;;;;9.07;62.13;99875.25;5114414;28;20407;-74
2023/01/19 07:11:41;;;;;;;15.70;7.75;;;;;;;9.10;63.13;99890.75;5114368;28;20372;-76
2023/01/19 07:14:07;;;;;;;15.10;9.13;;;;;;;9.21;62.55;99881.56;5114061;28;20521;-74
2023/01/19 07:16:32;;;;;;;18.17;9.85;;;;;;;9.27;62.25;99881.63;5115563;28;20375;-76
2023/01/19 07:18:58;;;;;;;17.27;9.63;;;;;;;9.31;62.96;99896.16;5114543;28;20851;-77
2023/01/19 07:21:23;;;;;;;16.70;9.33;;;;;;;9.36;62.72;99896.44;5114630;28;20367;-77
2023/01/19 07:23:52;;;;;;;18.85;10.70;;;;;;;9.49;62.19;99913.47;5113840;28;20367;-76
2023/01/19 07:26:20;;;;;;;18.70;9.43;;;;;;;9.54;62.40;99905.81;5113834;28;20403;-76
2023/01/19 07:28:46;;;;;;;16.03;8.40;;;;;;;9.38;63.25;99904.16;5113513;28;20407;-76
2023/01/19 07:31:13;;;;;;;14.80;8.97;;;;;;;9.43;63.28;99908.91;5114146;28;20527;-76
2023/01/19 07:33:41;;;;;;;13.60;7.60;;;;;;;9.36;63.85;99908.81;5113165;28;20767;-78
2023/01/19 07:36:07;;;;;;;13.52;7.22;;;;;;;9.52;63.29;99891.94;5114856;28;20478;-75
2023/01/19 07:38:33;;;;;;;15.88;8.65;;;;;;;9.64;63.31;99911.66;5114549;28;20394;-75
2023/01/19 07:41:04;;;;;;;16.02;9.10;;;;;;;9.72;63.00;99906.28;5113387;28;20670;-74
2023/01/19 07:43:30;;;;;;;16.93;9.27;;;;;;;9.88;62.77;99897.28;5113066;28;20792;-75
2023/01/19 07:45:57;;;;;;;17.33;8.65;;;;;;;9.98;62.68;99901.50;5113801;28;20388;-74
2023/01/19 07:48:22;;;;;;;21.75;12.60;;;;;;;10.09;62.41;99917.69;5114531;27;20885;-76
2023/01/19 07:50:47;;;;;;;17.90;8.70;;;;;;;10.14;62.29;99930.41;5113419;27;20388;-75
2023/01/19 07:53:13;;;;;;;24.38;10.45;;;;;;;10.21;62.26;99939.25;5112713;28;20723;-75
2023/01/19 07:55:38;;;;;;;29.33;15.57;;;;;;;10.13;62.37;99931.38;5113510;28;20475;-75
2023/01/19 07:58:06;;;;;;;28.50;16.97;;;;;;;10.12;62.72;99946.47;5113441;28;20470;-75
2023/01/19 08:00:32;;;;;;;16.58;8.25;;;;;;;10.23;62.20;99942.53;5113368;28;20452;-76
2023/01/19 08:02:59;;;;;;;29.35;14.25;;;;;;;10.19;62.74;99951.00;5112227;28;20388;-76
2023/01/19 08:05:25;;;;;;;21.20;10.68;;;;;;;10.30;62.22;99961.97;5113927;28;20502;-75
2023/01/19 08:07:51;;;;;;;22.40;10.57;;;;;;;10.29;62.70;99955.00;5112480;28;20414;-75
2023/01/19 08:10:17;;;;;;;24.10;12.00;;;;;;;10.33;62.64;99951.03;5112964;28;20376;-75
2023/01/19 08:12:43;;;;;;;30.17;14.10;;;;;;;10.52;62.11;99962.03;5111274;28;20487;-74
2023/01/19 08:15:09;;;;;;;29.40;12.80;;;;;;;10.52;62.35;99940.81;5112391;28;20460;-76
2023/01/19 08:17:35;;;;;;;17.85;8.13;;;;;;;10.60;62.48;99930.06;5113196;28;20429;-74
2023/01/19 08:20:01;;;;;;;16.20;8.02;;;;;;;10.74;62.03;99948.78;5112315;28;20391;-76
2023/01/19 08:22:26;;;;;;;18.45;10.40;;;;;;;10.85;61.91;99966.81;5113464;27;20896;-74
2023/01/19 08:24:53;;;;;;;20.03;11.23;;;;;;;10.75;62.66;99950.41;5112702;28;21076;-74
2023/01/19 08:27:19;;;;;;;19.63;8.20;;;;;;;10.92;62.57;99957.09;5112177;28;20399;-75
2023/01/19 08:29:45;;;;;;;20.50;8.30;;;;;;;11.16;62.36;99949.72;5112717;28;20392;-74
2023/01/19 08:32:10;;;;;;;22.43;5.53;;;;;;;11.32;61.68;99948.63;5112746;28;20375;-76
2023/01/19 08:34:36;;;;;;;16.85;5.88;;;;;;;11.35;61.72;99937.63;5111845;28;20388;-76
2023/01/19 08:37:01;;;;;;;16.40;6.83;;;;;;;11.26;62.30;99940.41;5113201;28;20441;-74
2023/01/19 08:39:26;;;;;;;13.57;5.13;;;;;;;11.26;62.72;99947.56;5111958;28;20398;-75
2023/01/19 08:41:53;;;;;;;16.60;4.90;;;;;;;11.50;61.96;99950.78;5112484;28;20371;-76
2023/01/19 08:44:19;;;;;;;14.45;4.75;;;;;;;11.73;61.58;99955.81;5111890;28;20371;-75
2023/01/19 08:46:44;;;;;;;19.50;5.78;;;;;;;11.81;61.21;99948.53;5111721;28;20396;-76
2023/01/19 08:49:10;;;;;;;14.90;6.22;;;;;;;11.80;61.55;99944.22;5110882;28;20479;-74
2023/01/19 08:51:36;;;;;;;14.60;6.23;;;;;;;11.91;61.54;99956.16;5111016;28;20375;-74
2023/01/19 08:54:02;;;;;;;18.85;9.23;;;;;;;12.03;61.11;99957.22;5111417;28;20732;-75
2023/01/19 08:56:28;;;;;;;24.73;8.00;;;;;;;12.17;60.88;99971.38;5112664;28;20454;-76
2023/01/19 08:58:53;;;;;;;20.30;7.70;;;;;;;12.30;60.47;99969.78;5111573;28;20380;-75
2023/01/19 09:01:21;;;;;;;17.08;6.95;;;;;;;12.32;60.65;99962.44;5112079;28;20855;-75
2023/01/19 09:03:47;;;;;;;21.55;7.93;;;;;;;12.33;60.80;99972.84;5112373;28;20376;-75
2023/01/19 09:06:18;;;;;;;17.63;6.97;;;;;;;12.36;60.88;99971.66;5112431;28;20414;-75
2023/01/19 09:08:44;;;;;;;13.77;5.90;;;;;;;12.37;61.14;99989.22;5111581;28;20466;-75
2023/01/19 09:11:10;;;;;;;21.42;7.90;;;;;;;12.27;61.21;99967.53;5111876;28;20467;-77
2023/01/19 09:13:35;;;;;;;15.88;6.70;;;;;;;12.27;61.61;99976.31;5111562;28;20379;-75
2023/01/19 09:16:02;;;;;;;19.98;7.00;;;;;;;12.55;60.91;99992.16;5111043;28;20383;-75
2023/01/19 09:18:28;;;;;;;27.87;8.80;;;;;;;12.58;60.66;99981.09;5111577;28;20383;-75
2023/01/19 09:20:56;;;;;;;23.50;9.93;;;;;;;12.47;61.09;99984.34;5111665;28;20729;-76
2023/01/19 09:23:22;;;;;;;22.53;7.53;;;;;;;12.34;60.96;99993.09;5112496;28;20380;-76
2023/01/19 09:25:48;;;;;;;17.27;6.75;;;;;;;12.30;60.82;99997.19;5111339;28;20920;-77
2023/01/19 09:28:16;;;;;;;19.75;7.72;;;;;;;12.45;60.30;99999.69;5111308;27;20448;-77
2023/01/19 09:30:42;;;;;;;16.20;7.03;;;;;;;12.59;59.87;100009.34;5111128;28;20442;-75
2023/01/19 09:33:10;;;;;;;22.85;8.23;;;;;;;12.66;59.64;99998.72;5093612;28;20395;-78
2023/01/19 09:35:40;;;;;;;19.95;7.60;;;;;;;12.65;59.47;99997.06;5111506;28;20451;-75
2023/01/19 09:38:07;;;;;;;22.35;8.90;;;;;;;12.72;59.14;100013.88;5109917;28;20862;-76
2023/01/19 09:40:35;;;;;;;23.03;8.80;;;;;;;12.63;59.01;99983.97;5111249;28;20371;-76
2023/01/19 09:43:38;;;;;;;20.58;9.02;;;;;;;12.60;59.39;99980.91;5111344;28;20364;-75
2023/01/19 09:46:18;;;;;;;22.17;8.45;;;;;;;12.73;59.42;99988.94;5110888;28;20363;-76
2023/01/19 09:48:53;;;;;;;24.10;9.37;;;;;;;12.85;59.17;99989.13;5111410;28;20478;-75
2023/01/19 09:51:22;;;;;;;17.63;7.63;;;;;;;12.76;59.63;99987.69;5110973;28;20372;-77
2023/01/19 09:54:16;;;;;;;17.55;8.80;;;;;;;12.81;59.78;100007.34;5110339;28;20387;-76
2023/01/19 09:56:47;;;;;;;12.63;5.10;;;;;;;12.81;60.31;100003.88;5099673;28;20357;-76
2023/01/19 09:59:21;;;;;;;16.67;5.77;;;;;;;12.85;60.42;100005.09;5094831;28;20449;-76
2023/01/19 10:01:56;;;;;;;17.80;5.53;;;;;;;12.90;60.59;99999.16;5095070;28;20400;-76
2023/01/19 10:04:26;;;;;;;14.10;5.33;;;;;;;12.96;60.81;99993.03;5094654;28;20879;-75
2023/01/19 10:07:16;;;;;;;10.18;4.25;;;;;;;12.81;60.57;99988.72;5094335;28;20407;-76
2023/01/19 10:09:46;;;;;;;17.17;5.63;;;;;;;12.97;60.43;99971.53;5094513;28;20434;-76
2023/01/19 10:12:25;;;;;;;17.15;5.10;;;;;;;13.25;59.70;99967.03;5094746;28;20460;-76
2023/01/19 10:15:16;;;;;;;15.70;5.03;;;;;;;13.54;58.96;99971.97;5094705;28;20384;-75
2023/01/19 10:17:47;;;;;;;17.92;5.25;;;;;;;13.66;58.44;99976.66;5094442;28;20434;-75
2023/01/19 10:20:22;;;;;;;14.75;5.20;;;;;;;13.65;58.42;99969.66;5094794;28;20935;-75
2023/01/19 10:22:49;;;;;;;15.00;5.65;;;;;;;13.68;57.91;99974.59;5094121;28;20378;-77
2023/01/19 10:25:19;;;;;;;17.90;5.85;;;;;;;13.80;58.03;99974.78;5094410;28;20729;-74
2023/01/19 10:27:45;;;;;;;19.87;7.20;;;;;;;13.88;57.65;99983.38;5094466;28;20715;-75
2023/01/19 10:30:27;;;;;;;29.38;8.38;;;;;;;13.88;57.20;99977.19;5094589;28;20401;-76
2023/01/19 10:32:53;;;;;;;27.42;7.78;;;;;;;14.03;57.09;99979.63;5094148;28;20916;-75
2023/01/19 10:35:23;;;;;;;18.15;6.65;;;;;;;14.07;57.23;99978.16;5093773;28;20391;-75
2023/01/19 10:37:51;;;;;;;17.45;7.13;;;;;;;14.05;57.11;99980.22;5094376;28;20460;-75
2023/01/19 10:40:56;;;;;;;20.08;7.97;;;;;;;14.17;57.12;99983.03;5094377;28;20384;-75
2023/01/19 10:43:35;;;;;;;20.90;6.78;;;;;;;14.23;56.76;99985.69;5091186;28;20392;-77
2023/01/19 10:46:34;;;;;;;25.60;7.40;;;;;;;14.34;56.79;99986.88;5093815;28;20715;-76
2023/01/19 10:48:59;;;;;;;18.58;6.05;;;;;;;14.50;56.52;99985.56;5094440;28;20393;-76
2023/01/19 10:51:25;;;;;;;23.00;6.53;;;;;;;14.63;56.04;99992.69;5093807;28;20381;-75
2023/01/19 10:54:11;;;;;;;21.37;6.67;;;;;;;14.57;55.80;99996.16;5094219;28;20388;-76
2023/01/19 10:56:37;;;;;;;24.55;6.95;;;;;;;14.56;55.73;99987.34;5094290;28;20377;-77
2023/01/19 10:59:05;;;;;;;21.70;7.07;;;;;;;14.61;55.56;100000.09;5093308;28;20373;-75
2023/01/19 11:01:35;;;;;;;20.53;6.27;;;;;;;14.65;55.96;99999.44;5094553;28;20480;-75
2023/01/19 11:04:19;;;;;;;24.42;5.97;;;;;;;14.83;55.42;100008.56;5094260;28;20401;-75
2023/01/19 11:06:44;;;;;;;25.50;6.72;;;;;;;14.87;55.39;100001.78;5093565;28;20397;-76
2023/01/19 11:09:20;;;;;;;21.50;6.57;;;;;;;14.92;55.34;100009.94;5093082;28;20868;-75
2023/01/19 11:11:51;;;;;;;21.23;7.30;;;;;;;14.79;55.53;100010.06;5094841;28;20365;-77
2023/01/19 11:14:23;;;;;;;22.80;7.40;;;;;;;14.90;55.52;100015.50;5093660;28;20764;-77
2023/01/19 11:16:53;;;;;;;23.80;7.45;;;;;;;15.04;55.56;100012.75;5092728;28;20389;-77
2023/01/19 11:19:31;;;;;;;15.82;6.65;;;;;;;15.17;55.27;100017.97;5093435;28;20392;-77
2023/01/19 11:22:21;;;;;;;21.00;6.68;;;;;;;15.07;55.26;100020.31;5093943;28;20726;-76
2023/01/19 11:24:47;;;;;;;19.63;7.05;;;;;;;14.95;55.53;100009.53;5093371;28;20445;-76
2023/01/19 11:27:18;;;;;;;19.98;6.72;;;;;;;14.87;55.96;100004.44;5092569;28;20484;-76
2023/01/19 11:29:55;;;;;;;16.77;5.32;;;;;;;15.16;55.43;100005.69;5094365;28;20409;-77
2023/01/19 11:32:22;;;;;;;18.98;5.88;;;;;;;15.35;54.93;99995.84;5093998;28;20699;-79
2023/01/19 11:34:48;;;;;;;20.83;6.93;;;;;;;15.41;54.64;99978.13;5092959;28;20460;-77
2023/01/19 11:37:19;;;;;;;18.60;5.63;;;;;;;15.33;54.53;99989.94;5093299;28;20522;-76
2023/01/19 11:39:51;;;;;;;18.67;7.50;;;;;;;15.46;54.69;100000.47;5093408;28;20385;-76
2023/01/19 11:42:17;;;;;;;21.80;7.07;;;;;;;15.58;54.84;100008.59;5093027;28;20382;-75
2023/01/19 11:44:57;;;;;;;28.42;7.82;;;;;;;15.61;54.54;100004.66;5093138;28;20393;-76